Time;durP1;ratioP1;P1;durP2;ratioP2;P2;SDS_P1;SDS_P2;PMS_P1;PMS_P2;Temp;Humidity;BMP_temperature;BMP_pressure;BME280_temperature;BME280_humidity;BME280_pressure;Samples;Min_cycle;Max_cycle;Signal;HPM_P1;HPM_P2
2021/09/19 00:01:19;;;;;;;7.05;6.35;;;17.80;80.30;;;;;;5007024;28;20026;-84
2021/09/19 00:03:45;;;;;;;7.10;6.07;;;17.80;80.30;;;;;;4994095;28;20034;-84
2021/09/19 00:06:11;;;;;;;7.05;6.35;;;17.80;80.30;;;;;;4987833;28;20053;-84
2021/09/19 00:08:37;;;;;;;6.60;6.00;;;17.80;80.90;;;;;;4987588;28;20070;-86
2021/09/19 00:11:04;;;;;;;7.15;6.40;;;17.80;80.30;;;;;;4955881;28;20026;-83
2021/09/19 00:13:30;;;;;;;7.40;6.40;;;17.80;80.30;;;;;;4995852;28;20030;-84
2021/09/19 00:15:56;;;;;;;8.30;7.47;;;17.80;80.40;;;;;;4976102;28;20033;-84
2021/09/19 00:18:22;;;;;;;7.32;6.38;;;17.80;80.40;;;;;;5006261;28;20080;-83
2021/09/19 00:20:48;;;;;;;7.90;7.13;;;17.70;80.20;;;;;;4971715;28;20031;-84
2021/09/19 00:23:15;;;;;;;8.05;7.25;;;17.70;80.20;;;;;;4990031;28;20449;-86
2021/09/19 00:25:41;;;;;;;9.00;8.10;;;17.80;80.40;;;;;;4973007;28;20084;-85
2021/09/19 00:28:07;;;;;;;8.07;7.38;;;17.70;80.30;;;;;;4972078;28;20060;-86
2021/09/19 00:30:34;;;;;;;9.00;8.10;;;17.70;80.30;;;;;;4988564;28;20030;-84
2021/09/19 00:33:00;;;;;;;8.20;7.40;;;17.70;80.30;;;;;;4990112;28;20069;-86
2021/09/19 00:35:27;;;;;;;8.07;7.28;;;17.70;80.40;;;;;;4992739;28;20505;-85
2021/09/19 00:37:54;;;;;;;9.80;8.80;;;17.70;80.40;;;;;;5015355;28;20044;-85
2021/09/19 00:40:20;;;;;;;9.75;8.52;;;17.60;80.20;;;;;;5014738;28;20555;-85
2021/09/19 00:42:46;;;;;;;9.75;8.75;;;17.60;80.30;;;;;;5018755;28;20038;-85
2021/09/19 00:45:16;;;;;;;9.05;8.25;;;17.60;80.30;;;;;;4997612;28;20027;-85
2021/09/19 00:47:43;;;;;;;9.63;8.60;;;17.60;80.40;;;;;;4982506;28;20219;-86
2021/09/19 00:50:11;;;;;;;9.70;8.70;;;17.60;80.40;;;;;;4977692;28;20021;-82
2021/09/19 00:52:39;;;;;;;10.15;8.10;;;17.50;80.30;;;;;;5017396;28;20045;-84
2021/09/19 00:55:06;;;;;;;9.05;8.23;;;17.50;80.30;;;;;;4997277;28;20061;-83
2021/09/19 00:57:41;;;;;;;8.63;7.72;;;17.50;80.80;;;;;;5013963;28;20282;-84
2021/09/19 01:00:09;;;;;;;8.77;7.88;;;17.50;80.40;;;;;;5031491;28;20044;-84
2021/09/19 01:02:35;;;;;;;9.45;8.45;;;17.50;80.40;;;;;;5030975;28;20032;-84
2021/09/19 01:05:01;;;;;;;10.10;8.93;;;17.50;80.40;;;;;;4995446;28;20023;-84
2021/09/19 01:07:27;;;;;;;8.57;7.78;;;17.50;80.40;;;;;;5011978;28;20100;-85
2021/09/19 01:09:53;;;;;;;9.65;8.65;;;17.50;80.50;;;;;;5011606;28;20072;-84
2021/09/19 01:12:23;;;;;;;10.45;9.45;;;17.50;80.50;;;;;;5011709;28;20062;-85
2021/09/19 01:14:49;;;;;;;10.88;9.38;;;17.40;80.40;;;;;;4977282;28;20045;-85
2021/09/19 01:17:17;;;;;;;10.45;8.75;;;17.50;80.50;;;;;;4999399;28;20034;-85
2021/09/19 01:19:46;;;;;;;9.57;7.97;;;17.40;80.30;;;;;;4997777;28;20050;-85
2021/09/19 01:22:13;;;;;;;10.05;8.93;;;17.40;80.40;;;;;;5014524;28;20057;-85
2021/09/19 01:24:40;;;;;;;9.82;8.75;;;17.40;80.40;;;;;;5031240;28;20068;-84
2021/09/19 01:27:07;;;;;;;9.35;8.20;;;17.40;80.40;;;;;;5030301;28;20017;-84
2021/09/19 01:29:35;;;;;;;8.88;8.07;;;17.40;80.40;;;;;;5000924;28;20022;-85
2021/09/19 01:32:03;;;;;;;10.48;7.65;;;17.40;80.40;;;;;;4987692;28;20411;-85
2021/09/19 01:34:29;;;;;;;8.90;7.05;;;17.40;80.40;;;;;;4977874;28;20190;-84
2021/09/19 01:36:55;;;;;;;8.45;7.55;;;17.40;80.40;;;;;;5005382;28;20204;-85
2021/09/19 01:39:21;;;;;;;7.00;6.30;;;17.30;80.20;;;;;;4995634;28;20084;-85
2021/09/19 01:41:51;;;;;;;8.18;7.38;;;17.30;80.10;;;;;;5023142;28;20107;-84
2021/09/19 01:44:17;;;;;;;7.15;6.43;;;17.30;80.20;;;;;;4994140;28;20023;-84
2021/09/19 01:46:43;;;;;;;8.95;7.07;;;17.30;80.20;;;;;;5010070;28;20049;-85
2021/09/19 01:49:09;;;;;;;6.10;5.50;;;17.30;80.10;;;;;;5017279;28;20077;-84
2021/09/19 01:51:36;;;;;;;8.63;6.32;;;17.30;80.10;;;;;;5014185;28;20041;-85
2021/09/19 01:54:02;;;;;;;6.60;5.95;;;17.20;80.00;;;;;;5016749;28;20049;-85
2021/09/19 01:56:28;;;;;;;6.38;5.78;;;17.20;80.00;;;;;;5034480;28;20022;-85
2021/09/19 01:58:55;;;;;;;7.35;6.05;;;17.20;80.00;;;;;;5000974;28;20022;-86
2021/09/19 02:01:23;;;;;;;6.90;6.25;;;17.10;79.80;;;;;;5032392;28;20138;-84
2021/09/19 02:03:52;;;;;;;6.05;5.40;;;17.10;79.80;;;;;;5015246;28;20041;-84
2021/09/19 02:06:19;;;;;;;7.05;5.43;;;17.10;79.80;;;;;;5014914;28;20026;-84
2021/09/19 02:08:49;;;;;;;6.20;5.20;;;17.10;79.90;;;;;;4998861;28;20029;-84
2021/09/19 02:11:16;;;;;;;6.82;6.13;;;17.10;79.90;;;;;;5020186;28;20057;-84
2021/09/19 02:13:44;;;;;;;6.03;5.43;;;17.10;79.90;;;;;;4992070;28;20112;-82
2021/09/19 02:16:11;;;;;;;5.63;5.07;;;17.10;79.90;;;;;;5000900;28;20090;-83
2021/09/19 02:18:37;;;;;;;5.70;5.05;;;17.10;79.90;;;;;;4992820;28;20048;-83
2021/09/19 02:21:06;;;;;;;5.28;4.78;;;17.10;80.00;;;;;;4976937;28;20461;-85
2021/09/19 02:23:32;;;;;;;4.90;4.40;;;17.00;79.80;;;;;;4976735;28;20438;-85
2021/09/19 02:25:58;;;;;;;5.45;4.18;;;17.00;79.80;;;;;;5010582;28;20528;-84
2021/09/19 02:28:24;;;;;;;4.60;4.05;;;17.00;79.80;;;;;;4992855;28;20030;-86
2021/09/19 02:30:51;;;;;;;5.47;4.30;;;17.00;79.80;;;;;;4976529;28;20037;-85
2021/09/19 02:33:18;;;;;;;5.35;4.40;;;17.00;79.80;;;;;;4976666;28;20030;-86
2021/09/19 02:35:45;;;;;;;6.88;4.18;;;16.90;79.70;;;;;;4976438;28;20026;-85
2021/09/19 02:38:11;;;;;;;4.97;4.45;;;16.90;79.70;;;;;;4992883;28;20084;-85
2021/09/19 02:40:37;;;;;;;6.15;4.30;;;16.90;79.70;;;;;;4992694;28;20026;-84
2021/09/19 02:43:03;;;;;;;4.60;3.63;;;16.90;79.70;;;;;;4992490;28;20030;-85
2021/09/19 02:45:29;;;;;;;5.13;3.83;;;16.90;79.70;;;;;;4992416;28;20030;-84
2021/09/19 02:47:55;;;;;;;4.05;3.67;;;16.90;79.70;;;;;;4992067;28;20081;-84
2021/09/19 02:50:24;;;;;;;4.13;3.70;;;16.90;79.70;;;;;;5009919;28;20037;-84
2021/09/19 02:52:50;;;;;;;5.05;4.15;;;16.90;79.70;;;;;;4992362;28;20046;-84
2021/09/19 02:55:18;;;;;;;5.18;4.35;;;16.90;79.70;;;;;;4976151;28;20032;-84
2021/09/19 02:57:44;;;;;;;5.38;3.67;;;16.80;79.60;;;;;;4994666;28;20030;-84
2021/09/19 03:00:14;;;;;;;5.57;3.53;;;16.80;79.60;;;;;;4996032;28;20026;-84
2021/09/19 03:02:41;;;;;;;6.20;4.70;;;16.80;79.60;;;;;;4995543;28;20030;-85
2021/09/19 03:05:07;;;;;;;4.43;3.40;;;16.80;79.60;;;;;;4995852;28;20355;-85
2021/09/19 03:07:33;;;;;;;4.00;3.53;;;16.80;79.60;;;;;;4995658;28;20378;-85
2021/09/19 03:09:59;;;;;;;3.05;2.75;;;16.80;79.60;;;;;;4995688;28;20029;-85
2021/09/19 03:12:25;;;;;;;5.05;3.28;;;16.80;79.70;;;;;;4979640;28;20133;-84
2021/09/19 03:14:51;;;;;;;5.47;3.78;;;16.70;79.50;;;;;;4995550;28;20026;-84
2021/09/19 03:17:17;;;;;;;3.60;3.08;;;16.70;79.60;;;;;;4992411;28;20054;-84
2021/09/19 03:19:43;;;;;;;3.30;3.00;;;16.70;79.60;;;;;;4976397;28;20035;-84
2021/09/19 03:22:09;;;;;;;4.53;3.08;;;16.70;79.60;;;;;;4992285;28;20057;-86
2021/09/19 03:24:35;;;;;;;4.75;3.25;;;16.70;79.60;;;;;;4975812;28;20027;-84
2021/09/19 03:27:01;;;;;;;3.35;2.92;;;16.70;79.60;;;;;;4993512;28;20030;-84
2021/09/19 03:29:27;;;;;;;3.70;3.33;;;16.70;79.60;;;;;;4975721;28;20508;-85
2021/09/19 03:31:53;;;;;;;3.80;2.92;;;16.70;79.70;;;;;;4975784;28;20181;-86
2021/09/19 03:34:19;;;;;;;5.97;3.25;;;16.70;79.70;;;;;;4959536;28;20438;-84
2021/09/19 03:36:45;;;;;;;4.75;3.22;;;16.70;79.70;;;;;;4991710;28;20037;-84
2021/09/19 03:39:10;;;;;;;3.88;3.00;;;16.70;80.20;;;;;;4975924;28;20537;-84
2021/09/19 03:41:37;;;;;;;3.63;2.58;;;16.60;79.50;;;;;;4991830;28;20030;-85
2021/09/19 03:44:04;;;;;;;5.72;3.50;;;16.70;79.70;;;;;;4998471;28;20392;-85
2021/09/19 03:46:30;;;;;;;3.60;2.63;;;16.70;79.70;;;;;;5001957;28;20129;-84
2021/09/19 03:48:56;;;;;;;4.07;2.30;;;16.70;79.70;;;;;;4980669;28;20026;-83
2021/09/19 03:51:24;;;;;;;4.05;3.13;;;16.60;79.60;;;;;;5002499;28;20052;-85
2021/09/19 03:53:50;;;;;;;3.63;2.50;;;16.70;79.70;;;;;;4986383;28;20033;-85
2021/09/19 03:56:16;;;;;;;3.30;2.70;;;16.70;79.70;;;;;;4985296;28;20368;-83
2021/09/19 03:58:42;;;;;;;2.72;2.40;;;16.60;79.60;;;;;;5006672;28;20029;-83
2021/09/19 04:01:08;;;;;;;2.72;2.47;;;16.60;79.60;;;;;;5017361;28;20038;-83
2021/09/19 04:03:34;;;;;;;3.83;2.72;;;16.60;79.50;;;;;;5027865;28;20021;-84
2021/09/19 04:06:00;;;;;;;3.50;2.35;;;16.60;79.50;;;;;;4999424;28;20129;-83
2021/09/19 04:08:26;;;;;;;2.65;2.10;;;16.60;79.50;;;;;;5000118;28;20061;-84
2021/09/19 04:10:52;;;;;;;2.78;2.33;;;16.60;79.60;;;;;;5014140;28;20077;-83
2021/09/19 04:13:18;;;;;;;3.28;2.28;;;16.60;79.50;;;;;;4996114;28;20045;-84
2021/09/19 04:15:44;;;;;;;2.10;1.95;;;16.60;79.50;;;;;;5012292;28;20087;-83
2021/09/19 04:18:10;;;;;;;3.45;2.60;;;16.50;79.30;;;;;;4995563;28;20030;-84
2021/09/19 04:20:36;;;;;;;2.90;2.20;;;16.50;79.40;;;;;;4994710;28;20500;-83
2021/09/19 04:23:02;;;;;;;5.35;2.83;;;16.50;79.40;;;;;;4994607;28;20022;-83
2021/09/19 04:25:28;;;;;;;2.50;1.80;;;16.50;79.40;;;;;;4995078;28;20034;-83
2021/09/19 04:27:54;;;;;;;2.97;2.45;;;16.50;79.40;;;;;;4978510;28;20026;-84
2021/09/19 04:30:20;;;;;;;2.17;2.00;;;16.50;79.40;;;;;;4995195;28;20053;-83
2021/09/19 04:32:46;;;;;;;2.50;2.10;;;16.50;79.40;;;;;;5012095;28;20033;-83
2021/09/19 04:35:12;;;;;;;2.28;2.00;;;16.40;79.20;;;;;;4993945;28;20030;-85
2021/09/19 04:37:38;;;;;;;3.03;2.33;;;16.50;79.40;;;;;;4994533;28;20100;-84
2021/09/19 04:40:08;;;;;;;3.85;2.05;;;16.50;79.40;;;;;;5012188;28;20034;-86
2021/09/19 04:42:35;;;;;;;3.42;1.60;;;16.40;79.30;;;;;;4994423;28;20030;-86
2021/09/19 04:45:01;;;;;;;3.10;2.05;;;16.40;79.30;;;;;;4993875;28;20104;-85
2021/09/19 04:47:27;;;;;;;2.85;1.73;;;16.40;79.30;;;;;;4990630;28;20057;-85
2021/09/19 04:49:53;;;;;;;3.38;1.73;;;16.40;79.30;;;;;;4999367;28;20026;-85
2021/09/19 04:52:19;;;;;;;2.67;1.70;;;16.40;79.30;;;;;;4977610;28;20038;-85
2021/09/19 04:54:45;;;;;;;3.00;1.63;;;16.40;79.30;;;;;;4998400;28;20029;-84
2021/09/19 04:57:11;;;;;;;3.13;1.83;;;16.40;79.80;;;;;;5009449;28;20048;-84
2021/09/19 04:59:37;;;;;;;3.00;2.20;;;16.40;79.30;;;;;;5007502;28;20044;-84
2021/09/19 05:02:03;;;;;;;2.55;1.50;;;16.40;79.30;;;;;;5004879;28;20077;-86
2021/09/19 05:04:29;;;;;;;3.40;1.88;;;16.40;79.30;;;;;;4985316;28;20058;-85
2021/09/19 05:06:55;;;;;;;2.30;1.60;;;16.40;79.30;;;;;;4955993;28;20061;-84
2021/09/19 05:09:21;;;;;;;5.55;2.85;;;16.40;79.30;;;;;;5006560;28;20058;-85
2021/09/19 05:11:47;;;;;;;2.13;1.65;;;16.40;79.30;;;;;;5004407;28;20041;-84
2021/09/19 05:14:13;;;;;;;2.10;1.80;;;16.40;79.30;;;;;;5001070;28;20037;-84
2021/09/19 05:16:39;;;;;;;2.75;1.75;;;16.40;79.30;;;;;;5011797;28;20490;-83
2021/09/19 05:19:05;;;;;;;2.83;1.50;;;16.40;79.30;;;;;;4981670;28;20034;-84
2021/09/19 05:21:31;;;;;;;3.47;1.77;;;16.30;79.10;;;;;;4999208;28;20034;-83
2021/09/19 05:23:57;;;;;;;3.28;1.77;;;16.30;79.10;;;;;;4990169;28;20102;-83
2021/09/19 05:26:24;;;;;;;2.30;1.88;;;16.30;79.10;;;;;;4988811;28;20190;-83
2021/09/19 05:28:50;;;;;;;2.38;1.50;;;16.30;79.10;;;;;;4998895;28;20038;-84
2021/09/19 05:31:16;;;;;;;3.58;1.70;;;16.30;79.10;;;;;;4962124;28;20042;-82
2021/09/19 05:33:42;;;;;;;3.55;1.63;;;16.30;79.20;;;;;;4994438;28;20551;-85
2021/09/19 05:36:08;;;;;;;3.03;1.50;;;16.30;79.20;;;;;;4986323;28;20394;-82
2021/09/19 05:38:35;;;;;;;2.67;1.77;;;16.30;79.20;;;;;;4986747;28;20038;-85
2021/09/19 05:41:01;;;;;;;4.15;1.40;;;16.30;79.20;;;;;;4987405;28;20062;-87
2021/09/19 05:43:27;;;;;;;2.22;1.40;;;16.30;79.20;;;;;;4966540;28;20044;-80
2021/09/19 05:45:53;;;;;;;2.78;1.40;;;16.30;79.30;;;;;;4969145;28;20489;-81
2021/09/19 05:48:19;;;;;;;2.58;1.55;;;16.30;79.30;;;;;;4964824;28;20034;-79
2021/09/19 05:50:45;;;;;;;3.08;1.30;;;16.30;79.30;;;;;;4977919;28;20473;-80
2021/09/19 05:53:11;;;;;;;3.45;1.40;;;16.30;79.30;;;;;;4992868;28;20122;-81
2021/09/19 05:55:37;;;;;;;2.05;1.10;;;16.20;79.10;;;;;;4997196;28;20106;-81
2021/09/19 05:58:03;;;;;;;1.70;1.25;;;16.20;79.10;;;;;;4995938;28;20057;-81
2021/09/19 06:00:29;;;;;;;2.33;1.50;;;16.20;79.10;;;;;;4995784;28;20034;-80
2021/09/19 06:02:56;;;;;;;1.92;1.40;;;16.20;79.20;;;;;;4979962;28;20022;-81
2021/09/19 06:05:22;;;;;;;2.72;1.40;;;16.20;79.20;;;;;;4980694;28;20036;-82
2021/09/19 06:07:48;;;;;;;4.05;1.63;;;16.20;79.20;;;;;;4977304;28;20126;-82
2021/09/19 06:10:14;;;;;;;2.70;1.27;;;16.20;79.20;;;;;;4977763;28;20517;-80
2021/09/19 06:12:40;;;;;;;1.88;1.30;;;16.20;79.20;;;;;;5005099;28;20038;-80
2021/09/19 06:15:07;;;;;;;2.05;1.65;;;16.30;79.40;;;;;;5006585;28;20034;-82
2021/09/19 06:17:33;;;;;;;2.20;1.40;;;16.20;79.30;;;;;;4984891;28;20041;-79
2021/09/19 06:20:00;;;;;;;3.25;1.30;;;16.20;79.40;;;;;;4997156;28;20440;-81
2021/09/19 06:22:26;;;;;;;3.42;1.85;;;16.30;79.60;;;;;;4985538;28;20224;-81
2021/09/19 06:24:52;;;;;;;2.72;1.35;;;16.30;79.60;;;;;;4983121;28;20048;-83
2021/09/19 06:27:18;;;;;;;3.20;1.70;;;16.30;79.60;;;;;;4985943;28;20076;-78
2021/09/19 06:29:44;;;;;;;2.95;1.90;;;16.30;79.60;;;;;;4974714;28;20065;-78
2021/09/19 06:32:11;;;;;;;3.60;2.03;;;16.30;79.90;;;;;;4977659;28;20088;-79
2021/09/19 06:34:38;;;;;;;5.10;2.03;;;16.30;80.40;;;;;;4991136;28;20120;-81
2021/09/19 06:37:05;;;;;;;4.40;2.10;;;16.40;81.00;;;;;;4991702;28;20026;-80
2021/09/19 06:39:31;;;;;;;2.75;1.20;;;16.40;81.10;;;;;;4956931;28;20119;-80
2021/09/19 06:41:57;;;;;;;3.10;1.70;;;16.50;81.40;;;;;;4999218;28;20121;-79
2021/09/19 06:44:23;;;;;;;2.88;1.95;;;16.50;81.40;;;;;;4999880;28;20034;-79
2021/09/19 06:46:49;;;;;;;4.72;1.60;;;16.50;81.40;;;;;;4974576;28;20055;-80
2021/09/19 06:49:15;;;;;;;3.15;1.90;;;16.60;81.50;;;;;;4978873;28;20069;-80
2021/09/19 06:51:41;;;;;;;3.40;1.92;;;16.60;81.60;;;;;;4978991;28;20070;-80
2021/09/19 06:54:07;;;;;;;6.55;2.10;;;16.70;82.00;;;;;;4980547;28;20038;-80
2021/09/19 06:56:33;;;;;;;4.15;2.22;;;16.70;82.20;;;;;;4979083;28;20035;-79
2021/09/19 06:58:59;;;;;;;2.20;1.83;;;16.80;82.40;;;;;;4978747;28;20061;-78
2021/09/19 07:01:25;;;;;;;3.60;1.33;;;16.80;82.40;;;;;;4977614;28;20482;-78
2021/09/19 07:03:51;;;;;;;4.88;2.35;;;16.90;82.50;;;;;;4978433;28;20058;-80
2021/09/19 07:06:17;;;;;;;3.33;1.63;;;17.00;82.70;;;;;;4997085;28;20058;-81
2021/09/19 07:08:45;;;;;;;3.40;2.58;;;17.00;82.60;;;;;;4963252;28;20034;-80
2021/09/19 07:11:13;;;;;;;4.40;1.90;;;17.10;82.70;;;;;;4991088;28;20023;-79
2021/09/19 07:13:39;;;;;;;5.82;2.08;;;17.10;82.50;;;;;;4972228;28;20043;-80
2021/09/19 07:16:05;;;;;;;5.00;1.60;;;17.20;82.50;;;;;;5003256;28;20037;-79
2021/09/19 07:18:31;;;;;;;3.25;2.05;;;17.20;82.30;;;;;;5004440;28;20026;-79
2021/09/19 07:20:58;;;;;;;5.70;2.53;;;17.30;82.30;;;;;;4996826;28;20030;-79
2021/09/19 07:23:24;;;;;;;4.78;1.55;;;17.30;82.20;;;;;;4989584;28;20046;-79
2021/09/19 07:25:52;;;;;;;4.30;1.77;;;17.40;82.20;;;;;;4999461;28;20449;-80
2021/09/19 07:28:19;;;;;;;3.28;1.67;;;17.40;82.00;;;;;;4983768;28;20098;-80
2021/09/19 07:30:45;;;;;;;5.72;1.70;;;17.50;82.40;;;;;;4978433;28;20105;-80
2021/09/19 07:33:11;;;;;;;4.25;2.00;;;17.50;81.70;;;;;;4979691;28;20038;-80
2021/09/19 07:35:37;;;;;;;3.88;2.05;;;17.60;81.60;;;;;;4976288;28;20522;-79
2021/09/19 07:38:04;;;;;;;4.60;2.38;;;17.60;81.40;;;;;;4982300;28;20035;-79
2021/09/19 07:40:31;;;;;;;4.40;1.92;;;17.70;81.40;;;;;;5003950;28;20172;-81
2021/09/19 07:43:00;;;;;;;4.82;2.10;;;17.70;81.10;;;;;;4983207;28;20024;-81
2021/09/19 07:45:27;;;;;;;3.92;2.22;;;17.70;80.90;;;;;;5003454;28;20041;-79
2021/09/19 07:47:54;;;;;;;4.68;1.77;;;17.80;81.00;;;;;;4992005;28;20061;-81
2021/09/19 07:50:20;;;;;;;5.57;1.92;;;17.80;81.00;;;;;;4995263;28;20076;-81
2021/09/19 07:52:47;;;;;;;1.95;1.60;;;17.80;80.90;;;;;;4999022;28;20034;-79
2021/09/19 07:55:15;;;;;;;4.22;2.00;;;17.80;80.70;;;;;;4969159;28;20274;-80
2021/09/19 07:57:42;;;;;;;2.28;1.35;;;17.90;81.30;;;;;;4972343;28;20034;-79
2021/09/19 08:00:08;;;;;;;6.93;1.75;;;17.80;80.50;;;;;;5006330;28;20287;-80
2021/09/19 08:02:39;;;;;;;3.90;1.60;;;17.80;80.30;;;;;;4976972;28;20046;-80
2021/09/19 08:05:05;;;;;;;3.30;1.75;;;17.90;80.40;;;;;;4988313;28;20117;-79
2021/09/19 08:07:31;;;;;;;4.30;1.65;;;17.90;80.20;;;;;;5003998;28;20461;-81
2021/09/19 08:09:57;;;;;;;3.70;1.70;;;17.90;80.00;;;;;;5004241;28;20076;-80
2021/09/19 08:12:23;;;;;;;2.08;1.15;;;17.90;79.80;;;;;;4988729;28;20046;-80
2021/09/19 08:14:49;;;;;;;3.38;1.20;;;18.00;79.80;;;;;;4989203;28;20064;-78
2021/09/19 08:17:15;;;;;;;2.50;1.33;;;18.00;79.70;;;;;;4988460;28;20435;-79
2021/09/19 08:19:41;;;;;;;2.72;1.40;;;18.10;79.60;;;;;;5001810;28;20034;-80
2021/09/19 08:22:08;;;;;;;2.88;1.50;;;18.10;79.40;;;;;;4985994;28;20033;-79
2021/09/19 08:24:34;;;;;;;3.90;1.67;;;18.20;79.30;;;;;;4973726;28;20030;-79
2021/09/19 08:27:03;;;;;;;5.72;1.42;;;18.30;79.20;;;;;;4975555;28;20113;-80
2021/09/19 08:29:29;;;;;;;3.30;1.63;;;18.30;79.00;;;;;;4988242;28;20402;-79
2021/09/19 08:31:55;;;;;;;6.25;1.98;;;18.40;78.90;;;;;;4987854;28;20038;-81
2021/09/19 08:34:21;;;;;;;4.32;1.40;;;18.40;78.60;;;;;;4986449;28;20034;-80
2021/09/19 08:36:47;;;;;;;8.23;1.88;;;18.50;78.50;;;;;;4972298;28;20022;-78
2021/09/19 08:39:13;;;;;;;4.78;1.60;;;18.50;78.30;;;;;;4998071;28;20132;-79
2021/09/19 08:41:39;;;;;;;4.75;1.45;;;18.50;78.10;;;;;;5004867;28;20041;-79
2021/09/19 08:44:05;;;;;;;8.88;2.38;;;18.60;78.00;;;;;;5005344;28;20057;-79
2021/09/19 08:46:31;;;;;;;2.65;1.35;;;18.60;77.80;;;;;;4985966;28;20057;-82
2021/09/19 08:48:57;;;;;;;4.65;1.55;;;18.60;77.60;;;;;;4972227;28;20039;-79
2021/09/19 08:51:23;;;;;;;6.22;1.73;;;18.60;77.50;;;;;;4968303;28;20214;-80
2021/09/19 08:53:50;;;;;;;7.32;1.70;;;18.60;77.30;;;;;;4993817;28;20112;-79
2021/09/19 08:56:24;;;;;;;7.20;1.63;;;18.70;77.20;;;;;;4976569;28;20118;-79
2021/09/19 08:58:51;;;;;;;4.43;1.08;;;18.70;76.70;;;;;;4982850;28;20038;-80
2021/09/19 09:01:17;;;;;;;6.32;1.60;;;18.70;76.50;;;;;;4990357;28;20022;-78
2021/09/19 09:03:43;;;;;;;5.38;1.42;;;18.80;76.40;;;;;;4979581;28;20035;-81
2021/09/19 09:06:09;;;;;;;5.60;1.77;;;18.80;76.20;;;;;;4969687;28;20471;-81
2021/09/19 09:08:35;;;;;;;6.88;1.70;;;18.80;76.00;;;;;;4998506;28;20080;-81
2021/09/19 09:11:05;;;;;;;9.10;2.13;;;18.80;75.70;;;;;;4992494;28;20030;-80
2021/09/19 09:13:36;;;;;;;4.40;1.38;;;18.90;75.80;;;;;;4983600;28;20049;-81
2021/09/19 09:16:11;;;;;;;9.07;1.50;;;19.00;75.70;;;;;;4984819;28;20031;-79
2021/09/19 09:18:43;;;;;;;5.30;2.05;;;19.10;75.50;;;;;;4987268;28;20400;-80
2021/09/19 09:21:12;;;;;;;6.83;1.47;;;19.20;75.50;;;;;;4986059;28;20149;-80
2021/09/19 09:23:49;;;;;;;3.63;1.27;;;19.30;75.30;;;;;;4982794;28;20437;-81
2021/09/19 09:26:23;;;;;;;6.78;1.77;;;19.40;75.00;;;;;;4967695;28;20035;-81
2021/09/19 09:29:01;;;;;;;7.05;1.83;;;19.50;74.80;;;;;;4988998;28;20039;-79
2021/09/19 09:31:39;;;;;;;7.07;1.58;;;19.50;74.40;;;;;;4978683;28;20360;-80
2021/09/19 09:34:13;;;;;;;5.13;1.40;;;19.60;74.30;;;;;;4974775;28;20053;-81
2021/09/19 09:36:55;;;;;;;14.38;1.73;;;19.70;74.20;;;;;;4992878;28;20034;-80
2021/09/19 09:39:39;;;;;;;4.10;1.42;;;19.70;73.90;;;;;;4999683;28;20501;-82
2021/09/19 09:42:14;;;;;;;6.07;1.30;;;19.80;73.90;;;;;;4990751;28;20038;-80
2021/09/19 09:44:59;;;;;;;9.82;2.72;;;19.90;74.00;;;;;;4976466;28;20037;-81
2021/09/19 09:47:32;;;;;;;4.35;1.42;;;20.00;73.90;;;;;;4968494;28;20525;-80
2021/09/19 09:50:03;;;;;;;4.72;1.80;;;20.00;73.40;;;;;;4975521;28;20113;-80
2021/09/19 09:52:30;;;;;;;4.78;1.65;;;20.10;73.20;;;;;;4990476;28;20567;-81
2021/09/19 09:55:05;;;;;;;5.75;1.73;;;20.10;73.10;;;;;;4993257;28;20030;-80
2021/09/19 09:57:37;;;;;;;15.93;2.38;;;20.10;72.80;;;;;;4975937;28;20328;-79
2021/09/19 10:00:15;;;;;;;7.50;1.75;;;20.10;72.60;;;;;;4991686;28;20510;-80
2021/09/19 10:02:44;;;;;;;5.85;1.75;;;20.20;72.70;;;;;;4988934;28;20133;-80
2021/09/19 10:05:12;;;;;;;7.47;1.88;;;20.20;72.50;;;;;;4972359;28;20506;-80
2021/09/19 10:07:39;;;;;;;3.60;1.23;;;20.20;72.30;;;;;;4981129;28;20027;-80
2021/09/19 10:10:08;;;;;;;5.03;1.40;;;20.30;72.20;;;;;;4967090;28;20366;-80
2021/09/19 10:12:35;;;;;;;5.57;1.58;;;20.30;72.00;;;;;;4981527;28;20069;-80
2021/09/19 10:15:02;;;;;;;3.00;0.95;;;20.20;71.70;;;;;;4969498;28;20085;-81
2021/09/19 10:17:28;;;;;;;4.50;1.58;;;20.20;71.60;;;;;;4995268;28;20141;-81
2021/09/19 10:19:55;;;;;;;3.67;1.40;;;20.20;71.50;;;;;;4978539;28;20039;-81
2021/09/19 10:22:30;;;;;;;4.53;1.58;;;20.20;71.40;;;;;;4975939;28;20038;-82
2021/09/19 10:24:56;;;;;;;6.07;1.48;;;20.20;71.30;;;;;;4988294;28;20068;-81
2021/09/19 10:27:28;;;;;;;6.32;1.60;;;20.20;71.20;;;;;;4978610;28;20390;-79
2021/09/19 10:30:03;;;;;;;5.73;1.27;;;20.30;71.10;;;;;;4982286;28;20394;-80
2021/09/19 10:32:41;;;;;;;6.60;1.85;;;20.40;71.00;;;;;;4961865;28;20367;-81
2021/09/19 10:35:29;;;;;;;3.80;1.50;;;20.50;70.90;;;;;;4981278;28;20079;-80
2021/09/19 10:38:00;;;;;;;4.32;1.73;;;20.50;70.60;;;;;;4981365;28;20039;-79
2021/09/19 10:40:34;;;;;;;3.92;1.67;;;20.50;70.50;;;;;;4971940;28;20514;-79
2021/09/19 10:43:01;;;;;;;6.07;1.00;;;20.40;70.30;;;;;;4985572;28;20077;-81
2021/09/19 10:45:42;;;;;;;5.75;1.52;;;20.40;70.20;;;;;;4964919;28;20544;-79
2021/09/19 10:48:12;;;;;;;4.32;1.65;;;20.40;70.00;;;;;;5018820;28;20242;-81
2021/09/19 10:50:38;;;;;;;7.47;1.63;;;20.50;70.20;;;;;;5000709;28;20026;-80
2021/09/19 10:53:19;;;;;;;9.13;1.88;;;20.50;70.10;;;;;;5006595;28;20037;-79
2021/09/19 10:56:03;;;;;;;4.97;1.45;;;20.60;70.20;;;;;;5012993;28;20026;-80
2021/09/19 10:58:37;;;;;;;6.65;2.00;;;20.70;70.20;;;;;;4993141;28;20125;-81
2021/09/19 11:01:10;;;;;;;6.00;1.98;;;20.70;69.90;;;;;;5002976;28;20234;-81
2021/09/19 11:03:38;;;;;;;7.07;2.00;;;20.90;69.90;;;;;;4988276;28;20046;-81
2021/09/19 11:06:04;;;;;;;5.75;1.63;;;21.00;70.00;;;;;;5001025;28;20030;-80
2021/09/19 11:08:40;;;;;;;4.07;1.38;;;21.10;70.10;;;;;;4981495;28;20025;-82
2021/09/19 11:11:07;;;;;;;6.18;1.95;;;21.10;69.90;;;;;;4976716;28;20079;-81
2021/09/19 11:13:53;;;;;;;6.85;1.58;;;21.20;69.90;;;;;;4962740;28;20039;-82
2021/09/19 11:16:21;;;;;;;6.53;2.17;;;21.30;70.00;;;;;;5001116;28;20045;-81
2021/09/19 11:19:02;;;;;;;4.45;1.50;;;21.30;69.90;;;;;;4980311;28;20049;-81
2021/09/19 11:21:31;;;;;;;6.18;1.42;;;21.20;69.80;;;;;;4981749;28;20431;-79
2021/09/19 11:24:01;;;;;;;6.70;1.85;;;21.20;69.70;;;;;;4979197;28;20029;-78
2021/09/19 11:26:30;;;;;;;4.70;1.48;;;21.20;69.70;;;;;;5002162;28;20494;-81
2021/09/19 11:29:09;;;;;;;6.40;1.70;;;21.10;69.50;;;;;;4978220;28;20113;-80
2021/09/19 11:31:36;;;;;;;6.85;2.20;;;21.00;69.40;;;;;;4967448;28;20038;-79
2021/09/19 11:34:10;;;;;;;3.47;1.38;;;21.00;69.50;;;;;;4990970;28;20107;-81
2021/09/19 11:36:42;;;;;;;4.18;1.27;;;21.00;69.60;;;;;;5006561;28;20500;-82
2021/09/19 11:39:08;;;;;;;5.22;1.30;;;20.90;69.80;;;;;;4983205;28;20045;-81
2021/09/19 11:41:34;;;;;;;3.17;1.10;;;20.90;69.90;;;;;;4981244;28;20050;-82
2021/09/19 11:44:01;;;;;;;3.38;1.00;;;20.90;69.90;;;;;;4983557;28;20386;-81
2021/09/19 11:46:27;;;;;;;1.50;0.70;;;20.90;70.00;;;;;;4954750;28;20072;-80
2021/09/19 11:48:55;;;;;;;3.60;0.80;;;20.90;70.10;;;;;;4989006;28;20609;-80
2021/09/19 11:51:22;;;;;;;2.13;0.85;;;20.90;70.20;;;;;;4971193;28;20121;-82
2021/09/19 11:53:56;;;;;;;1.35;0.57;;;20.90;70.70;;;;;;4986687;28;20074;-79
2021/09/19 11:56:25;;;;;;;1.77;0.38;;;20.90;70.10;;;;;;4988703;28;20053;-81
2021/09/19 11:58:52;;;;;;;10.00;1.48;;;20.90;70.10;;;;;;4982350;28;20573;-81
2021/09/19 12:01:26;;;;;;;4.13;0.52;;;20.90;70.10;;;;;;4983621;28;20113;-82
2021/09/19 12:03:53;;;;;;;1.45;0.40;;;20.80;70.00;;;;;;4985034;28;20087;-81
2021/09/19 12:06:20;;;;;;;3.60;0.85;;;20.80;70.00;;;;;;4980228;28;20029;-82
2021/09/19 12:08:46;;;;;;;1.63;0.55;;;20.80;70.00;;;;;;4973083;28;20400;-81
2021/09/19 12:11:12;;;;;;;2.33;0.47;;;20.80;70.00;;;;;;5007109;28;20069;-81
2021/09/19 12:13:45;;;;;;;1.92;0.47;;;20.90;70.10;;;;;;4995648;28;20038;-80
2021/09/19 12:16:14;;;;;;;2.15;0.80;;;20.80;69.90;;;;;;4989727;28;20030;-80
2021/09/19 12:18:43;;;;;;;1.05;0.60;;;20.80;69.80;;;;;;4978500;28;20085;-81
2021/09/19 12:21:11;;;;;;;2.72;0.65;;;20.80;69.80;;;;;;4989466;28;20022;-81
2021/09/19 12:23:46;;;;;;;1.60;0.60;;;20.90;69.90;;;;;;4971422;28;20342;-82
2021/09/19 12:26:16;;;;;;;2.15;0.80;;;21.00;69.80;;;;;;4971046;28;20367;-80
2021/09/19 12:28:43;;;;;;;4.13;1.45;;;21.10;69.90;;;;;;4979439;28;20148;-80
2021/09/19 12:31:12;;;;;;;3.13;1.42;;;21.10;69.80;;;;;;4996207;28;20358;-82
2021/09/19 12:33:54;;;;;;;2.40;1.10;;;21.10;69.50;;;;;;4974849;28;20096;-84
2021/09/19 12:36:21;;;;;;;3.13;1.52;;;21.20;69.50;;;;;;4983226;28;20117;-81
2021/09/19 12:38:47;;;;;;;5.63;3.97;;;21.30;69.60;;;;;;4995481;28;20049;-81
2021/09/19 12:41:14;;;;;;;7.18;4.50;;;21.30;69.40;;;;;;4983413;28;20433;-81
2021/09/19 12:43:42;;;;;;;3.33;2.22;;;21.40;69.30;;;;;;4982717;28;20144;-81
2021/09/19 12:46:14;;;;;;;3.95;2.05;;;21.40;69.00;;;;;;4990113;28;20053;-81
2021/09/19 12:48:44;;;;;;;2.25;1.23;;;21.40;68.80;;;;;;4975193;28;20030;-81